Time;durP1;ratioP1;P1;durP2;ratioP2;P2;SDS_P1;SDS_P2;PMS_P1;PMS_P2;Temp;Humidity;BMP_temperature;BMP_pressure;BME280_temperature;BME280_humidity;BME280_pressure;Samples;Min_cycle;Max_cycle;Signal;HPM_P1;HPM_P2
2021/12/06 00:00:33;;;;;;;15.70;8.57;;;2.00;99.90;;;;;;5067880;28;20173;-79
2021/12/06 00:03:04;;;;;;;17.00;8.50;;;2.00;99.90;;;;;;5067298;28;20228;-76
2021/12/06 00:05:31;;;;;;;13.90;7.73;;;2.00;99.90;;;;;;5067453;28;20196;-78
2021/12/06 00:07:56;;;;;;;16.47;8.57;;;1.90;99.90;;;;;;5066932;28;20709;-78
2021/12/06 00:10:22;;;;;;;15.53;8.73;;;2.00;99.90;;;;;;5049389;28;20190;-79
2021/12/06 00:12:48;;;;;;;15.57;8.30;;;2.00;99.90;;;;;;5049970;28;20248;-76
2021/12/06 00:15:14;;;;;;;16.70;8.50;;;1.90;99.90;;;;;;5067763;28;20215;-80
2021/12/06 00:17:40;;;;;;;17.97;9.50;;;2.00;99.90;;;;;;5049217;28;20185;-78
2021/12/06 00:20:10;;;;;;;18.53;9.87;;;2.00;99.90;;;;;;5048839;28;21166;-76
2021/12/06 00:22:36;;;;;;;16.83;8.53;;;1.90;99.90;;;;;;5049320;28;20189;-78
2021/12/06 00:25:03;;;;;;;17.60;9.10;;;2.00;99.90;;;;;;5049188;28;20177;-78
2021/12/06 00:27:29;;;;;;;19.90;11.07;;;2.00;99.90;;;;;;5049152;28;20297;-77
2021/12/06 00:29:54;;;;;;;20.33;9.83;;;2.00;99.90;;;;;;5066698;28;20266;-78
2021/12/06 00:32:21;;;;;;;23.47;11.77;;;2.00;99.90;;;;;;5049697;28;20656;-77
2021/12/06 00:34:47;;;;;;;23.37;10.87;;;2.00;99.90;;;;;;5047640;28;20650;-78
2021/12/06 00:37:23;;;;;;;24.43;12.53;;;2.00;99.90;;;;;;5048843;28;20181;-77
2021/12/06 00:39:55;;;;;;;21.77;12.53;;;2.00;99.90;;;;;;5048182;28;20220;-76
2021/12/06 00:42:25;;;;;;;21.40;12.63;;;2.00;99.90;;;;;;5066717;28;20193;-76
2021/12/06 00:44:52;;;;;;;24.03;11.73;;;2.00;99.90;;;;;;5048323;28;21100;-76
2021/12/06 00:47:18;;;;;;;27.97;12.77;;;2.10;99.90;;;;;;5067338;28;20195;-77
2021/12/06 00:49:47;;;;;;;27.60;13.20;;;2.00;99.90;;;;;;5049317;28;20206;-77
2021/12/06 00:52:14;;;;;;;32.13;14.47;;;2.10;99.90;;;;;;5049364;28;20185;-80
2021/12/06 00:54:40;;;;;;;32.33;14.17;;;2.00;99.90;;;;;;5067595;28;20210;-80
2021/12/06 00:57:08;;;;;;;31.57;13.07;;;2.10;99.90;;;;;;5049000;28;20215;-77
2021/12/06 00:59:35;;;;;;;36.50;14.63;;;2.00;99.90;;;;;;5066129;28;20205;-78
2021/12/06 01:02:02;;;;;;;35.70;14.97;;;2.00;99.90;;;;;;5067913;28;20178;-77
2021/12/06 01:04:30;;;;;;;28.10;14.23;;;2.00;99.90;;;;;;5067674;28;20193;-79
2021/12/06 01:06:56;;;;;;;36.87;15.30;;;1.90;99.90;;;;;;5051346;28;20182;-79
2021/12/06 01:09:22;;;;;;;33.60;15.87;;;1.90;99.90;;;;;;5052429;28;20288;-77
2021/12/06 01:11:48;;;;;;;36.87;16.43;;;1.90;99.90;;;;;;5053026;28;20292;-81
2021/12/06 01:14:13;;;;;;;35.90;16.40;;;1.90;99.90;;;;;;5071569;28;20223;-81
2021/12/06 01:16:39;;;;;;;36.87;15.90;;;1.80;99.90;;;;;;5070635;28;20298;-77
2021/12/06 01:19:05;;;;;;;37.77;16.37;;;1.70;99.90;;;;;;5071407;28;20193;-77
2021/12/06 01:21:50;;;;;;;40.13;15.93;;;1.80;99.90;;;;;;5070933;28;20178;-77
2021/12/06 01:24:20;;;;;;;35.50;16.33;;;1.70;99.90;;;;;;5050469;28;20192;-80
2021/12/06 01:32:11;;;;;;;34.23;16.70;;;1.80;99.90;;;;;;5070884;28;20552;-78
2021/12/06 01:40:02;;;;;;;39.13;17.47;;;1.80;99.90;;;;;;5070761;28;20261;-80
2021/12/06 01:42:28;;;;;;;40.97;16.93;;;1.80;99.90;;;;;;5051423;28;20181;-79
2021/12/06 01:44:56;;;;;;;37.90;17.20;;;1.80;99.90;;;;;;5052318;28;20598;-77
2021/12/06 01:47:25;;;;;;;37.47;17.53;;;1.70;99.90;;;;;;5069904;28;20587;-77
2021/12/06 01:50:06;;;;;;;38.23;17.73;;;1.70;99.90;;;;;;5051142;28;20316;-79
2021/12/06 01:52:36;;;;;;;38.77;17.27;;;1.70;99.90;;;;;;5069746;28;20459;-77
2021/12/06 01:55:03;;;;;;;42.43;18.20;;;1.80;99.90;;;;;;5069553;28;20208;-78
2021/12/06 01:57:30;;;;;;;38.90;17.73;;;1.70;99.90;;;;;;5069297;28;20197;-79
2021/12/06 01:59:57;;;;;;;39.17;17.97;;;1.70;99.90;;;;;;5068787;28;20197;-77
2021/12/06 02:02:26;;;;;;;36.37;16.80;;;1.70;99.90;;;;;;5067519;28;20189;-79
2021/12/06 02:04:52;;;;;;;36.80;17.30;;;1.70;99.90;;;;;;5050145;28;20182;-78
2021/12/06 02:07:24;;;;;;;36.90;16.80;;;1.80;99.90;;;;;;5067403;28;20188;-80
2021/12/06 02:09:51;;;;;;;35.90;15.90;;;1.80;99.90;;;;;;5049697;28;20291;-79
2021/12/06 02:12:17;;;;;;;35.57;17.27;;;1.70;99.90;;;;;;5051515;28;20184;-79
2021/12/06 02:15:13;;;;;;;32.17;16.33;;;1.80;99.90;;;;;;5067447;28;20211;-77
2021/12/06 02:17:37;;;;;;;29.63;14.87;;;1.90;99.90;;;;;;5067306;28;20208;-79
2021/12/06 02:20:09;;;;;;;33.33;15.80;;;1.80;99.90;;;;;;5068444;28;20265;-77
2021/12/06 02:22:37;;;;;;;32.03;15.27;;;1.80;99.90;;;;;;5051166;28;20185;-79
2021/12/06 02:25:14;;;;;;;31.17;14.73;;;1.80;99.90;;;;;;5059669;28;20263;-77
2021/12/06 02:27:40;;;;;;;29.03;15.10;;;1.80;99.90;;;;;;5057580;28;20177;-77
2021/12/06 02:30:07;;;;;;;32.77;16.27;;;1.80;99.90;;;;;;5069297;28;20182;-79
2021/12/06 02:32:35;;;;;;;35.30;16.87;;;1.80;99.90;;;;;;5068325;28;20185;-79
2021/12/06 02:35:01;;;;;;;38.13;16.80;;;1.80;99.90;;;;;;5069042;28;20197;-78
2021/12/06 02:37:31;;;;;;;37.77;16.53;;;1.80;99.90;;;;;;5068938;28;20264;-76
2021/12/06 02:39:58;;;;;;;30.67;15.90;;;1.80;99.90;;;;;;5050787;28;20203;-79
2021/12/06 02:42:25;;;;;;;33.43;15.53;;;1.80;99.90;;;;;;5068973;28;20181;-78
2021/12/06 02:44:52;;;;;;;33.33;15.90;;;1.70;99.90;;;;;;5068345;28;20233;-80
2021/12/06 02:47:18;;;;;;;35.10;15.83;;;1.70;99.90;;;;;;5050533;28;20745;-76
2021/12/06 02:49:45;;;;;;;34.27;15.23;;;1.70;99.90;;;;;;5050509;28;20228;-77
2021/12/06 02:52:12;;;;;;;38.57;16.13;;;1.70;99.90;;;;;;5049910;28;20188;-77
2021/12/06 02:54:40;;;;;;;32.10;14.53;;;1.70;99.90;;;;;;5050112;28;20181;-75
2021/12/06 02:59:32;;;;;;;27.13;13.77;;;1.80;99.90;;;;;;5067691;28;20201;-79
2021/12/06 03:02:01;;;;;;;30.50;14.33;;;1.70;99.90;;;;;;5050544;28;20272;-76
2021/12/06 03:04:26;;;;;;;26.60;13.17;;;1.70;99.90;;;;;;5065886;28;20271;-76
2021/12/06 03:06:55;;;;;;;26.10;13.23;;;1.70;99.90;;;;;;5049113;28;20235;-78
2021/12/06 03:09:24;;;;;;;28.40;13.10;;;1.70;99.90;;;;;;5067126;28;20193;-77
2021/12/06 03:11:54;;;;;;;29.03;13.93;;;1.70;99.90;;;;;;5067293;28;20174;-78
2021/12/06 03:14:31;;;;;;;28.23;13.87;;;1.70;99.90;;;;;;5066298;28;20265;-77
2021/12/06 03:17:00;;;;;;;29.13;14.37;;;1.70;99.90;;;;;;5066383;28;20181;-79
2021/12/06 03:19:25;;;;;;;31.57;14.83;;;1.80;99.90;;;;;;5066853;28;20197;-76
2021/12/06 03:21:52;;;;;;;27.03;13.97;;;1.70;99.90;;;;;;5048369;28;20575;-77
2021/12/06 03:24:18;;;;;;;26.13;13.13;;;1.70;99.90;;;;;;5048388;28;20643;-78
2021/12/06 03:26:46;;;;;;;30.77;13.23;;;1.80;99.90;;;;;;5047760;28;20191;-78
2021/12/06 03:29:12;;;;;;;26.20;12.93;;;1.80;99.90;;;;;;5064418;28;20197;-76
2021/12/06 03:31:38;;;;;;;26.60;13.23;;;1.80;99.90;;;;;;5064925;28;20809;-78
2021/12/06 03:34:04;;;;;;;26.13;11.53;;;1.80;99.90;;;;;;5064517;28;20213;-78
2021/12/06 03:36:32;;;;;;;28.37;12.63;;;1.70;99.90;;;;;;5048401;28;20205;-77
2021/12/06 03:39:00;;;;;;;26.23;12.43;;;1.70;99.90;;;;;;5065482;28;20202;-77
2021/12/06 03:41:28;;;;;;;26.30;11.17;;;1.60;99.90;;;;;;5057341;28;20624;-76
2021/12/06 03:43:54;;;;;;;24.83;12.00;;;1.70;99.90;;;;;;5066023;28;20178;-77
2021/12/06 03:46:22;;;;;;;24.63;12.03;;;1.70;99.90;;;;;;5048954;28;20615;-77
2021/12/06 03:48:48;;;;;;;23.83;11.97;;;1.70;99.90;;;;;;5065256;28;20288;-79
2021/12/06 03:51:14;;;;;;;27.20;13.13;;;1.70;99.90;;;;;;5065552;28;20269;-78
2021/12/06 03:53:40;;;;;;;27.67;13.40;;;1.70;99.90;;;;;;5046950;28;20182;-77
2021/12/06 03:56:06;;;;;;;27.70;13.67;;;1.70;99.90;;;;;;5065670;28;20204;-78
2021/12/06 03:58:33;;;;;;;21.67;11.70;;;1.60;99.90;;;;;;5065246;28;20217;-78
2021/12/06 04:01:02;;;;;;;23.33;11.63;;;1.60;99.90;;;;;;5064791;28;20181;-78
2021/12/06 04:03:29;;;;;;;27.03;12.37;;;1.60;99.90;;;;;;5065078;28;20177;-78
2021/12/06 04:05:55;;;;;;;23.03;12.30;;;1.60;99.90;;;;;;5055979;28;20769;-78
2021/12/06 04:08:21;;;;;;;25.30;12.30;;;1.50;99.90;;;;;;5047357;28;20225;-79
2021/12/06 04:10:48;;;;;;;27.40;12.30;;;1.50;99.90;;;;;;5046917;28;20974;-77
2021/12/06 04:13:14;;;;;;;24.93;11.67;;;1.50;99.90;;;;;;5065721;28;20701;-79
2021/12/06 04:15:41;;;;;;;25.07;12.03;;;1.50;99.90;;;;;;5064739;28;20204;-77
2021/12/06 04:18:07;;;;;;;25.33;11.40;;;1.50;99.90;;;;;;5065328;28;20604;-78
2021/12/06 04:20:34;;;;;;;25.97;11.40;;;1.50;99.90;;;;;;5065410;28;20647;-77
2021/12/06 04:23:02;;;;;;;22.27;11.00;;;1.50;99.90;;;;;;5064991;28;20177;-77
2021/12/06 04:25:28;;;;;;;22.77;10.90;;;1.50;99.90;;;;;;5045578;28;20195;-77
2021/12/06 04:27:56;;;;;;;23.70;11.53;;;1.40;99.90;;;;;;5064788;28;20173;-77
2021/12/06 04:30:24;;;;;;;24.47;11.50;;;1.40;99.90;;;;;;5054939;28;20181;-78
2021/12/06 04:32:52;;;;;;;20.17;9.97;;;1.40;99.90;;;;;;5064462;28;20187;-77
2021/12/06 04:35:18;;;;;;;20.30;10.30;;;1.30;99.90;;;;;;5065106;28;20201;-78
2021/12/06 04:37:44;;;;;;;23.93;11.87;;;1.30;99.90;;;;;;5064941;28;20182;-77
2021/12/06 04:40:11;;;;;;;25.13;11.87;;;1.30;99.90;;;;;;5066521;28;20178;-77
2021/12/06 04:42:37;;;;;;;24.17;11.60;;;1.30;99.90;;;;;;5068364;28;20186;-77
2021/12/06 04:45:04;;;;;;;27.10;12.57;;;1.30;99.90;;;;;;5050116;28;20185;-77
2021/12/06 04:47:29;;;;;;;26.80;11.03;;;1.30;99.90;;;;;;5069066;28;20205;-77
2021/12/06 04:49:55;;;;;;;21.97;10.63;;;1.30;99.90;;;;;;5070928;28;20236;-77
2021/12/06 04:52:21;;;;;;;22.03;10.73;;;1.20;99.90;;;;;;5069625;28;20186;-78
2021/12/06 04:54:53;;;;;;;21.17;11.07;;;1.20;99.90;;;;;;5053636;28;20637;-77
2021/12/06 04:57:34;;;;;;;17.47;9.70;;;1.20;99.90;;;;;;5069830;28;21098;-77
2021/12/06 05:00:32;;;;;;;17.43;9.73;;;1.20;99.90;;;;;;5068044;28;20233;-76
2021/12/06 05:02:58;;;;;;;17.40;9.03;;;1.20;99.90;;;;;;5068300;28;20674;-76
2021/12/06 05:05:33;;;;;;;16.47;9.20;;;1.20;99.90;;;;;;5068889;28;20177;-79
2021/12/06 05:08:05;;;;;;;15.87;9.00;;;1.10;99.90;;;;;;5059670;28;20247;-78
2021/12/06 05:10:31;;;;;;;17.23;9.00;;;1.10;99.90;;;;;;5070150;28;20186;-78
2021/12/06 05:12:57;;;;;;;14.03;9.07;;;1.10;99.90;;;;;;5068793;28;20217;-76
2021/12/06 05:15:22;;;;;;;15.20;9.27;;;1.10;99.90;;;;;;5067685;28;20205;-76
2021/12/06 05:17:48;;;;;;;16.87;9.33;;;1.20;99.90;;;;;;5067872;28;20185;-77
2021/12/06 05:20:15;;;;;;;13.63;8.67;;;1.20;99.90;;;;;;5068294;28;20624;-76
2021/12/06 05:22:42;;;;;;;15.40;9.87;;;1.20;99.90;;;;;;5049572;28;20223;-76
2021/12/06 05:25:11;;;;;;;15.00;8.63;;;1.20;99.90;;;;;;5067927;28;20178;-77
2021/12/06 05:27:37;;;;;;;16.47;9.00;;;1.20;99.90;;;;;;5067859;28;20216;-76
2021/12/06 05:30:05;;;;;;;14.90;9.23;;;1.10;99.90;;;;;;5067646;28;20225;-77
2021/12/06 05:32:34;;;;;;;17.57;10.07;;;1.20;99.90;;;;;;5067575;28;20177;-76
2021/12/06 05:35:07;;;;;;;15.47;9.30;;;1.10;99.90;;;;;;5049967;28;20221;-77
2021/12/06 05:37:37;;;;;;;15.70;9.57;;;1.10;99.90;;;;;;5050034;28;20323;-78
2021/12/06 05:40:09;;;;;;;16.43;8.77;;;1.20;99.90;;;;;;5050305;28;20197;-77
2021/12/06 05:42:35;;;;;;;17.73;10.37;;;1.10;99.90;;;;;;5067759;28;21296;-77
2021/12/06 05:45:01;;;;;;;19.10;10.50;;;1.20;99.90;;;;;;5050362;28;20192;-78
2021/12/06 05:47:27;;;;;;;19.87;11.27;;;1.20;99.90;;;;;;5068125;28;20189;-77
2021/12/06 05:49:53;;;;;;;23.37;12.07;;;1.10;99.90;;;;;;5070966;28;20232;-77
2021/12/06 05:52:19;;;;;;;22.27;12.23;;;1.20;99.90;;;;;;5049422;28;20189;-77
2021/12/06 05:54:45;;;;;;;24.30;13.67;;;1.20;99.90;;;;;;5067611;28;20585;-77
2021/12/06 05:57:11;;;;;;;26.17;13.93;;;1.10;99.90;;;;;;5062961;28;20178;-77
2021/12/06 05:59:38;;;;;;;25.67;13.43;;;1.10;99.90;;;;;;5069475;28;20627;-78
2021/12/06 06:02:06;;;;;;;23.10;13.47;;;1.10;99.90;;;;;;5074639;28;20178;-79
2021/12/06 06:04:32;;;;;;;28.27;14.27;;;1.10;99.90;;;;;;5052511;28;20178;-78
2021/12/06 06:06:58;;;;;;;27.33;13.80;;;1.10;99.90;;;;;;5067251;28;20219;-78
2021/12/06 06:09:24;;;;;;;23.33;13.57;;;1.10;99.90;;;;;;5049345;28;20205;-79
2021/12/06 06:11:49;;;;;;;24.20;12.53;;;1.10;99.90;;;;;;5068019;28;20707;-78
2021/12/06 06:14:15;;;;;;;25.33;13.20;;;1.10;99.90;;;;;;5050721;28;20184;-78
2021/12/06 06:16:52;;;;;;;25.93;13.53;;;1.20;99.90;;;;;;5067481;28;20213;-78
2021/12/06 06:19:22;;;;;;;26.60;14.07;;;1.20;99.90;;;;;;5067344;28;20189;-76
2021/12/06 06:21:48;;;;;;;26.27;12.83;;;1.20;99.90;;;;;;5067166;28;20177;-78
2021/12/06 06:24:14;;;;;;;26.77;14.70;;;1.20;99.90;;;;;;5067458;28;21089;-78
2021/12/06 06:26:40;;;;;;;25.67;13.47;;;1.20;99.90;;;;;;5067176;28;20201;-78
2021/12/06 06:29:07;;;;;;;23.73;13.10;;;1.30;99.90;;;;;;5048254;28;20699;-76
2021/12/06 06:31:33;;;;;;;23.40;12.80;;;1.20;99.90;;;;;;5065834;28;20185;-78
2021/12/06 06:33:59;;;;;;;25.83;13.60;;;1.20;99.90;;;;;;5067150;28;20234;-79
2021/12/06 06:36:25;;;;;;;24.83;13.30;;;1.10;99.90;;;;;;5067117;28;20204;-78
2021/12/06 06:39:22;;;;;;;27.00;13.53;;;1.10;99.90;;;;;;5068269;28;20193;-80
2021/12/06 06:41:50;;;;;;;28.63;14.43;;;1.10;99.90;;;;;;5053722;28;20185;-81
2021/12/06 06:44:17;;;;;;;29.67;13.90;;;1.10;99.90;;;;;;5051260;28;20270;-78
2021/12/06 06:46:44;;;;;;;27.70;13.97;;;1.10;99.90;;;;;;5051189;28;20713;-78
2021/12/06 06:49:10;;;;;;;27.63;14.30;;;1.10;99.90;;;;;;5070765;28;20687;-77
2021/12/06 06:51:36;;;;;;;28.47;14.83;;;1.20;99.90;;;;;;5066304;28;20188;-78
2021/12/06 06:54:02;;;;;;;29.87;14.77;;;1.10;99.90;;;;;;5049532;28;20182;-77
2021/12/06 06:56:28;;;;;;;31.83;14.63;;;1.10;99.90;;;;;;5065541;28;20207;-77
2021/12/06 06:58:54;;;;;;;33.70;16.10;;;1.10;99.90;;;;;;5047824;28;20216;-77
2021/12/06 07:01:20;;;;;;;30.40;14.30;;;1.20;99.90;;;;;;5065555;28;20181;-77
2021/12/06 07:03:48;;;;;;;29.47;14.57;;;1.10;99.90;;;;;;5048472;28;20181;-77
2021/12/06 07:06:14;;;;;;;32.07;14.23;;;1.10;99.90;;;;;;5068784;28;20211;-78
2021/12/06 07:08:39;;;;;;;32.73;14.87;;;1.10;99.90;;;;;;5069156;28;20209;-78
2021/12/06 07:11:06;;;;;;;34.30;16.10;;;1.20;99.90;;;;;;5068465;28;20655;-78
2021/12/06 07:13:37;;;;;;;35.70;16.07;;;1.10;99.90;;;;;;5068547;28;20212;-81
2021/12/06 07:16:03;;;;;;;32.37;15.70;;;1.10;99.90;;;;;;5050636;28;20229;-77
2021/12/06 07:18:29;;;;;;;36.80;16.77;;;1.10;99.90;;;;;;5067897;28;20282;-77
2021/12/06 07:20:54;;;;;;;37.87;16.07;;;1.10;99.90;;;;;;5067768;28;20264;-77
2021/12/06 07:23:20;;;;;;;39.80;18.17;;;1.20;99.90;;;;;;5068441;28;20644;-77
2021/12/06 07:25:46;;;;;;;35.23;16.60;;;1.10;99.90;;;;;;5067972;28;20258;-77
2021/12/06 07:28:11;;;;;;;33.60;16.20;;;1.20;99.90;;;;;;5068244;28;20197;-77
2021/12/06 07:30:37;;;;;;;36.90;15.87;;;1.10;99.90;;;;;;5067783;28;20192;-76
2021/12/06 07:33:03;;;;;;;36.37;17.10;;;1.10;99.90;;;;;;5065994;28;20722;-77
2021/12/06 07:35:31;;;;;;;32.77;15.63;;;1.10;99.90;;;;;;5065105;28;20209;-76
2021/12/06 07:37:57;;;;;;;33.30;15.43;;;1.10;99.90;;;;;;5048444;28;20188;-79
2021/12/06 07:40:23;;;;;;;35.53;16.10;;;1.10;99.90;;;;;;5068621;28;21255;-77
2021/12/06 07:42:49;;;;;;;33.30;14.63;;;1.10;99.90;;;;;;5065578;28;20178;-77
2021/12/06 07:45:15;;;;;;;30.00;15.67;;;1.10;99.90;;;;;;5065591;28;20182;-76
2021/12/06 07:47:41;;;;;;;31.33;15.50;;;1.10;99.90;;;;;;5063178;28;20182;-76
2021/12/06 07:50:11;;;;;;;32.07;15.93;;;1.10;99.90;;;;;;5047180;28;20600;-78
2021/12/06 07:52:38;;;;;;;27.20;14.37;;;1.10;99.90;;;;;;5064890;28;20800;-76
2021/12/06 07:55:07;;;;;;;29.20;14.63;;;1.20;99.90;;;;;;5064898;28;20224;-76
2021/12/06 07:57:33;;;;;;;28.93;14.23;;;1.20;99.90;;;;;;5047317;28;20198;-77
2021/12/06 07:59:59;;;;;;;29.60;15.40;;;1.20;99.90;;;;;;5066136;28;20204;-76
2021/12/06 08:02:25;;;;;;;29.33;14.43;;;1.20;99.90;;;;;;5065575;28;20207;-76
2021/12/06 08:05:04;;;;;;;29.53;15.00;;;1.20;99.90;;;;;;5065868;28;20256;-77
2021/12/06 08:07:30;;;;;;;26.90;13.33;;;1.20;99.90;;;;;;5066049;28;20179;-77
2021/12/06 08:09:55;;;;;;;26.77;13.47;;;1.30;99.90;;;;;;5048929;28;20201;-78
2021/12/06 08:12:21;;;;;;;22.47;12.27;;;1.20;99.90;;;;;;5048695;28;20180;-78
2021/12/06 08:14:47;;;;;;;23.77;12.37;;;1.20;99.90;;;;;;5065644;28;20297;-75
2021/12/06 08:17:15;;;;;;;24.37;13.90;;;1.20;99.90;;;;;;5048631;28;20178;-76
2021/12/06 08:19:41;;;;;;;21.87;12.83;;;1.30;99.90;;;;;;5048363;28;20687;-76
2021/12/06 08:22:06;;;;;;;24.10;12.47;;;1.30;99.90;;;;;;5065762;28;20230;-77
2021/12/06 08:24:32;;;;;;;21.40;11.40;;;1.30;99.90;;;;;;5065560;28;20181;-78
2021/12/06 08:26:57;;;;;;;19.37;11.30;;;1.30;99.90;;;;;;5065925;28;20707;-77
2021/12/06 08:29:23;;;;;;;20.00;12.07;;;1.40;99.90;;;;;;5067429;28;20251;-78
2021/12/06 08:31:49;;;;;;;21.80;11.20;;;1.40;99.90;;;;;;5064596;28;20189;-77
2021/12/06 08:34:15;;;;;;;19.67;11.33;;;1.30;99.90;;;;;;5055221;28;20177;-77
2021/12/06 08:36:40;;;;;;;19.67;10.83;;;1.40;99.90;;;;;;5064862;28;20210;-77
2021/12/06 08:39:06;;;;;;;17.40;10.23;;;1.40;99.90;;;;;;5055895;28;20296;-77
2021/12/06 08:41:33;;;;;;;19.27;10.53;;;1.40;99.90;;;;;;5065663;28;21025;-78
2021/12/06 08:44:01;;;;;;;17.50;10.70;;;1.40;99.90;;;;;;5065871;28;20170;-78
2021/12/06 08:46:31;;;;;;;18.33;10.13;;;1.40;99.90;;;;;;5064583;28;20173;-77
2021/12/06 08:48:58;;;;;;;20.37;11.17;;;1.40;99.90;;;;;;5064351;28;20217;-76
2021/12/06 08:51:32;;;;;;;17.93;10.30;;;1.40;99.90;;;;;;5046769;28;20185;-76
2021/12/06 08:54:00;;;;;;;17.07;9.40;;;1.40;99.90;;;;;;5046869;28;20285;-76
2021/12/06 08:56:27;;;;;;;14.73;9.50;;;1.50;99.90;;;;;;5046723;28;20209;-77
2021/12/06 08:58:53;;;;;;;17.87;9.50;;;1.40;99.90;;;;;;5065415;28;20217;-78
2021/12/06 09:01:20;;;;;;;17.50;9.73;;;1.40;99.90;;;;;;5046741;28;20178;-78
2021/12/06 09:03:46;;;;;;;16.40;9.43;;;1.40;99.90;;;;;;5064855;28;20181;-77
2021/12/06 09:06:12;;;;;;;17.07;9.43;;;1.30;99.90;;;;;;5064847;28;20196;-78
2021/12/06 09:08:41;;;;;;;14.77;8.30;;;1.40;99.90;;;;;;5065416;28;20237;-77
2021/12/06 09:11:08;;;;;;;12.93;7.87;;;1.40;99.90;;;;;;5064495;28;20180;-77
2021/12/06 09:13:34;;;;;;;12.23;7.60;;;1.40;99.90;;;;;;5064668;28;20580;-78
2021/12/06 09:16:02;;;;;;;15.60;8.10;;;1.40;99.90;;;;;;5064691;28;20209;-78
2021/12/06 09:18:30;;;;;;;11.57;7.57;;;1.40;99.90;;;;;;5053332;28;20201;-78
2021/12/06 09:20:57;;;;;;;14.83;8.13;;;1.50;99.90;;;;;;5064480;28;20173;-78
2021/12/06 09:23:23;;;;;;;12.17;7.93;;;1.50;99.90;;;;;;5065190;28;20181;-76
2021/12/06 09:25:49;;;;;;;12.70;8.13;;;1.60;99.90;;;;;;5064875;28;20556;-78
2021/12/06 09:28:16;;;;;;;14.53;8.57;;;1.50;99.90;;;;;;5049907;28;20193;-77
2021/12/06 09:30:44;;;;;;;14.17;8.70;;;1.50;99.90;;;;;;5068218;28;20192;-78
2021/12/06 09:33:13;;;;;;;14.43;8.30;;;1.50;99.90;;;;;;5068730;28;20264;-78
2021/12/06 09:35:44;;;;;;;12.53;7.77;;;1.50;99.90;;;;;;5068781;28;20701;-77
2021/12/06 09:38:11;;;;;;;12.97;8.07;;;1.60;99.90;;;;;;5050209;28;20189;-77
2021/12/06 09:40:40;;;;;;;13.47;8.50;;;1.60;99.90;;;;;;5067497;28;20178;-78
2021/12/06 09:43:11;;;;;;;17.00;8.73;;;1.60;99.90;;;;;;5067966;28;20178;-79
2021/12/06 09:45:37;;;;;;;14.80;8.70;;;1.70;99.90;;;;;;5070265;28;20185;-77
2021/12/06 09:48:04;;;;;;;14.57;8.40;;;1.70;99.90;;;;;;5052916;28;20195;-78
2021/12/06 09:50:35;;;;;;;15.50;8.60;;;1.80;99.90;;;;;;5071468;28;20193;-78
2021/12/06 09:53:04;;;;;;;13.60;7.50;;;1.80;99.90;;;;;;5070504;28;20197;-78
2021/12/06 09:55:32;;;;;;;15.00;8.00;;;1.80;99.90;;;;;;5051978;28;20209;-78
2021/12/06 09:57:58;;;;;;;13.93;8.07;;;1.80;99.90;;;;;;5069888;28;20243;-78
2021/12/06 10:00:28;;;;;;;14.90;8.20;;;1.90;99.90;;;;;;5051398;28;20251;-78
2021/12/06 10:02:54;;;;;;;11.97;7.60;;;1.80;99.90;;;;;;5069761;28;20189;-77
2021/12/06 10:05:25;;;;;;;12.33;7.50;;;1.90;99.90;;;;;;5052033;28;20180;-78
2021/12/06 10:07:53;;;;;;;13.63;8.50;;;1.90;99.90;;;;;;5051947;28;20178;-78
2021/12/06 10:10:19;;;;;;;11.07;7.03;;;1.90;99.90;;;;;;5050169;28;20227;-78
2021/12/06 10:12:50;;;;;;;14.70;8.10;;;1.80;99.90;;;;;;5050185;28;20260;-77
2021/12/06 10:15:16;;;;;;;12.53;7.83;;;1.80;99.90;;;;;;5059389;28;20214;-77
2021/12/06 10:17:42;;;;;;;14.90;9.00;;;1.80;99.90;;;;;;5068842;28;20185;-77
2021/12/06 10:20:09;;;;;;;13.53;8.50;;;1.90;99.90;;;;;;5052328;28;20182;-77
2021/12/06 10:22:35;;;;;;;13.80;8.90;;;1.80;99.90;;;;;;5052050;28;20190;-78
2021/12/06 10:25:01;;;;;;;14.07;9.03;;;1.80;99.90;;;;;;5071596;28;21139;-76
2021/12/06 10:27:28;;;;;;;13.33;8.20;;;1.80;99.90;;;;;;5071024;28;20280;-78
2021/12/06 10:30:08;;;;;;;15.23;8.80;;;1.90;99.90;;;;;;5052590;28;20197;-77
2021/12/06 10:32:40;;;;;;;14.50;8.40;;;1.90;99.90;;;;;;5069027;28;20715;-77
2021/12/06 10:35:11;;;;;;;12.33;7.70;;;1.80;99.90;;;;;;5065811;28;20578;-77
2021/12/06 10:37:47;;;;;;;13.97;8.73;;;1.80;99.90;;;;;;5066241;28;20182;-77
2021/12/06 10:40:20;;;;;;;15.30;8.63;;;1.70;99.90;;;;;;5066854;28;20170;-77
2021/12/06 10:42:48;;;;;;;14.03;9.07;;;1.70;99.90;;;;;;5066287;28;20181;-77
2021/12/06 10:45:17;;;;;;;16.13;8.70;;;1.80;99.90;;;;;;5066857;28;20178;-77
2021/12/06 10:47:44;;;;;;;15.27;9.13;;;1.70;99.90;;;;;;5065319;28;20264;-77
2021/12/06 10:50:19;;;;;;;12.93;8.50;;;1.70;99.90;;;;;;5066477;28;20184;-77
2021/12/06 10:52:50;;;;;;;14.67;8.13;;;1.60;99.90;;;;;;5065693;28;20231;-77
2021/12/06 10:55:16;;;;;;;13.60;8.50;;;1.50;99.90;;;;;;5066310;28;20613;-77
2021/12/06 10:58:05;;;;;;;13.70;8.60;;;1.50;99.90;;;;;;5066032;28;20227;-77
2021/12/06 11:00:51;;;;;;;14.47;8.73;;;1.50;99.90;;;;;;5064977;28;20182;-78
2021/12/06 11:03:36;;;;;;;14.40;8.70;;;1.50;99.90;;;;;;5066764;28;20264;-77
2021/12/06 11:06:09;;;;;;;14.70;9.33;;;1.40;99.90;;;;;;5066023;28;20182;-76
2021/12/06 11:08:37;;;;;;;15.20;8.30;;;1.40;99.90;;;;;;5065658;28;20231;-76
2021/12/06 11:11:15;;;;;;;14.90;9.00;;;1.40;99.90;;;;;;5065618;28;20621;-76
2021/12/06 11:13:50;;;;;;;16.57;9.53;;;1.30;99.90;;;;;;5066060;28;20173;-76
2021/12/06 11:16:19;;;;;;;18.17;9.73;;;1.30;99.90;;;;;;5057554;28;20208;-81
2021/12/06 11:19:04;;;;;;;16.27;9.10;;;1.40;99.90;;;;;;5069645;28;21174;-78
2021/12/06 11:21:42;;;;;;;15.77;9.53;;;1.40;99.90;;;;;;5067830;28;20188;-78
2021/12/06 11:24:31;;;;;;;15.30;9.57;;;1.40;99.90;;;;;;5051297;28;20174;-77
2021/12/06 11:27:19;;;;;;;17.50;9.37;;;1.40;99.90;;;;;;5068950;28;20177;-80
2021/12/06 11:30:00;;;;;;;16.77;9.73;;;1.40;99.90;;;;;;5058306;28;20197;-78
2021/12/06 11:32:43;;;;;;;13.63;9.20;;;1.50;99.90;;;;;;5051103;28;20683;-77
2021/12/06 11:35:21;;;;;;;16.80;10.10;;;1.40;99.90;;;;;;5070126;28;20616;-77
2021/12/06 11:37:53;;;;;;;15.50;9.37;;;1.50;99.90;;;;;;5051570;28;20248;-80
2021/12/06 11:40:27;;;;;;;15.80;10.23;;;1.50;99.90;;;;;;5065253;28;20783;-77
2021/12/06 11:43:00;;;;;;;16.63;9.70;;;1.60;99.90;;;;;;5050243;28;20203;-77
2021/12/06 11:45:46;;;;;;;16.87;9.33;;;1.50;99.90;;;;;;5069385;28;20227;-78
2021/12/06 11:48:25;;;;;;;15.63;9.10;;;1.50;99.90;;;;;;5070341;28;20189;-79
2021/12/06 11:50:57;;;;;;;64.00;30.63;;;1.40;99.90;;;;;;5051199;28;20269;-79
2021/12/06 11:53:27;;;;;;;147.73;68.43;;;1.40;99.90;;;;;;5068965;28;20173;-78
2021/12/06 11:55:59;;;;;;;30.27;18.33;;;1.40;99.90;;;;;;5051114;28;20237;-77
2021/12/06 11:58:35;;;;;;;18.20;12.73;;;1.40;99.90;;;;;;5049545;28;20883;-77
2021/12/06 12:01:25;;;;;;;17.73;12.87;;;1.40;99.90;;;;;;5068319;28;20643;-81
2021/12/06 12:03:54;;;;;;;16.30;11.10;;;1.40;99.90;;;;;;5050615;28;20182;-79
2021/12/06 12:06:22;;;;;;;17.10;10.47;;;1.40;99.90;;;;;;5049569;28;20186;-78
2021/12/06 12:08:59;;;;;;;21.33;13.57;;;1.30;99.90;;;;;;5068451;28;20197;-80
2021/12/06 12:11:25;;;;;;;31.60;20.17;;;1.30;99.90;;;;;;5069644;28;20207;-76
2021/12/06 12:13:50;;;;;;;18.47;10.80;;;1.30;99.90;;;;;;5051454;28;20189;-78
2021/12/06 12:16:17;;;;;;;22.80;13.73;;;1.20;99.90;;;;;;5049226;28;20209;-77
2021/12/06 12:18:42;;;;;;;20.53;15.07;;;1.30;99.90;;;;;;5068605;28;20211;-80
2021/12/06 12:21:09;;;;;;;16.63;9.87;;;1.30;99.90;;;;;;5049253;28;20605;-78
2021/12/06 12:23:35;;;;;;;19.00;11.60;;;1.20;99.90;;;;;;5065936;28;20223;-76
2021/12/06 12:26:12;;;;;;;19.90;12.00;;;1.20;99.90;;;;;;5064269;28;21199;-76
2021/12/06 12:28:52;;;;;;;17.63;10.33;;;1.20;99.90;;;;;;5046176;28;20296;-78
2021/12/06 12:31:22;;;;;;;19.53;10.50;;;1.20;99.90;;;;;;5049859;28;20189;-79
2021/12/06 12:33:48;;;;;;;16.97;10.03;;;1.10;99.90;;;;;;5050822;28;20193;-79
2021/12/06 12:36:20;;;;;;;16.57;10.47;;;1.30;99.90;;;;;;5051065;28;20694;-79
2021/12/06 12:38:50;;;;;;;18.80;11.40;;;1.30;99.90;;;;;;5069428;28;20202;-77
2021/12/06 12:41:19;;;;;;;20.90;11.67;;;1.40;99.90;;;;;;5067888;28;20189;-77
2021/12/06 12:43:53;;;;;;;19.10;11.30;;;1.30;99.90;;;;;;5057439;28;20618;-78
2021/12/06 12:46:25;;;;;;;19.63;10.83;;;1.30;99.90;;;;;;5051267;28;20185;-79
2021/12/06 12:48:53;;;;;;;17.63;10.53;;;1.20;99.90;;;;;;5069182;28;20301;-77
2021/12/06 12:51:23;;;;;;;17.13;11.10;;;1.20;99.90;;;;;;5068758;28;20188;-77
2021/12/06 12:54:14;;;;;;;19.37;13.03;;;1.20;99.90;;;;;;5070539;28;20552;-78
2021/12/06 12:56:48;;;;;;;25.00;12.33;;;1.20;99.90;;;;;;5067161;28;20244;-79
2021/12/06 12:59:36;;;;;;;23.23;12.17;;;1.10;99.90;;;;;;5059477;28;20218;-77
2021/12/06 13:02:19;;;;;;;18.67;11.60;;;1.10;99.90;;;;;;5072240;28;20185;-78